Time;durP1;ratioP1;P1;durP2;ratioP2;P2;SDS_P1;SDS_P2;PMS_P1;PMS_P2;Temp;Humidity;BMP_temperature;BMP_pressure;BME280_temperature;BME280_humidity;BME280_pressure;Samples;Min_cycle;Max_cycle;Signal;HPM_P1;HPM_P2
2021/07/12 00:01:01;;;;;;;11.73;8.90;;;16.90;99.90;;;;;;5014555;28;20393;-76
2021/07/12 00:03:26;;;;;;;10.30;8.70;;;16.80;99.90;;;;;;5014956;28;20890;-76
2021/07/12 00:05:53;;;;;;;10.18;8.50;;;16.80;99.90;;;;;;5014731;28;20491;-76
2021/07/12 00:08:19;;;;;;;11.30;8.38;;;16.70;99.90;;;;;;5015027;28;20439;-75
2021/07/12 00:10:45;;;;;;;10.90;8.20;;;16.70;99.90;;;;;;5014662;28;20381;-76
2021/07/12 00:13:10;;;;;;;14.13;9.30;;;16.60;99.90;;;;;;5013267;28;20391;-76
2021/07/12 00:15:36;;;;;;;11.40;9.70;;;16.60;99.90;;;;;;5014409;28;20381;-75
2021/07/12 00:18:02;;;;;;;10.90;9.80;;;16.50;99.90;;;;;;5014114;28;20384;-76
2021/07/12 00:20:30;;;;;;;10.27;9.18;;;16.50;99.90;;;;;;5014440;28;20424;-77
2021/07/12 00:22:57;;;;;;;9.18;8.27;;;16.40;99.90;;;;;;5014148;28;20755;-76
2021/07/12 00:25:23;;;;;;;13.95;8.73;;;16.40;99.90;;;;;;5014742;28;20389;-76
2021/07/12 00:27:49;;;;;;;11.77;9.48;;;16.60;99.90;;;;;;5014315;28;20385;-76
2021/07/12 00:30:18;;;;;;;9.32;8.40;;;16.50;99.90;;;;;;5015705;28;20443;-75
2021/07/12 00:32:45;;;;;;;11.05;8.60;;;16.60;99.90;;;;;;5016422;28;20763;-75
2021/07/12 00:35:13;;;;;;;10.82;8.70;;;16.70;99.90;;;;;;5016972;28;20393;-76
2021/07/12 00:37:39;;;;;;;12.13;9.43;;;16.60;99.90;;;;;;5012996;28;20918;-76
2021/07/12 00:40:07;;;;;;;9.93;8.93;;;16.60;99.90;;;;;;5013945;28;20389;-76
2021/07/12 00:42:33;;;;;;;11.15;8.98;;;16.50;99.90;;;;;;5013624;28;20428;-78
2021/07/12 00:44:59;;;;;;;13.90;9.40;;;16.50;99.90;;;;;;5012578;28;20440;-76
2021/07/12 00:47:24;;;;;;;11.18;9.50;;;16.60;99.90;;;;;;5013756;28;20480;-77
2021/07/12 00:49:50;;;;;;;11.80;9.00;;;16.60;99.90;;;;;;5013591;28;20420;-76
2021/07/12 00:52:16;;;;;;;11.57;9.40;;;16.50;99.90;;;;;;5013531;28;20750;-76
2021/07/12 00:54:42;;;;;;;11.37;9.70;;;16.40;99.90;;;;;;5013743;28;20393;-76
2021/07/12 00:57:07;;;;;;;14.65;10.55;;;16.30;99.90;;;;;;5013913;28;20400;-75
2021/07/12 00:59:35;;;;;;;12.77;10.90;;;16.40;99.90;;;;;;5013547;28;20480;-75
2021/07/12 01:02:03;;;;;;;14.90;10.73;;;16.30;99.90;;;;;;5013496;28;20586;-76
2021/07/12 01:04:29;;;;;;;17.75;10.65;;;16.30;99.90;;;;;;5013245;28;21008;-74
2021/07/12 01:06:54;;;;;;;14.27;11.30;;;16.30;99.90;;;;;;5013879;28;20407;-77
2021/07/12 01:09:20;;;;;;;12.07;10.65;;;16.30;99.90;;;;;;5014779;28;20401;-77
2021/07/12 01:12:04;;;;;;;11.25;10.15;;;16.30;99.90;;;;;;5013780;28;20896;-76
2021/07/12 01:14:48;;;;;;;14.48;11.85;;;16.20;99.90;;;;;;5015276;28;20859;-78
2021/07/12 01:17:19;;;;;;;17.52;13.27;;;16.30;99.90;;;;;;5014022;28;20742;-77
2021/07/12 01:20:15;;;;;;;17.30;13.47;;;16.30;99.90;;;;;;5014099;28;20385;-76
2021/07/12 01:23:08;;;;;;;17.63;13.88;;;16.30;99.90;;;;;;4996709;28;20439;-77
2021/07/12 01:26:11;;;;;;;20.07;15.67;;;16.30;99.90;;;;;;5014896;28;20377;-76
2021/07/12 01:29:18;;;;;;;21.33;14.43;;;16.50;99.90;;;;;;4997214;28;20392;-78
2021/07/12 01:32:05;;;;;;;18.42;14.40;;;16.70;99.90;;;;;;5017006;28;20393;-77
2021/07/12 01:34:46;;;;;;;18.95;14.40;;;16.60;99.90;;;;;;5019330;28;20389;-77
2021/07/12 01:37:11;;;;;;;18.53;15.23;;;16.50;99.90;;;;;;5019526;28;20403;-77
2021/07/12 01:39:48;;;;;;;19.47;15.60;;;16.40;99.90;;;;;;4999010;28;20980;-77
2021/07/12 01:42:21;;;;;;;21.33;16.58;;;16.30;99.90;;;;;;4998682;28;20440;-78
2021/07/12 01:45:17;;;;;;;19.13;16.15;;;16.30;99.90;;;;;;4999782;28;20435;-77
2021/07/12 01:48:05;;;;;;;21.35;16.77;;;16.30;99.90;;;;;;5018596;28;20401;-78
2021/07/12 01:50:30;;;;;;;24.65;18.42;;;16.20;99.90;;;;;;5018023;28;20429;-77
2021/07/12 01:53:03;;;;;;;21.17;17.40;;;16.20;99.90;;;;;;5018955;28;20396;-75
2021/07/12 01:56:00;;;;;;;22.63;17.52;;;16.20;99.90;;;;;;5018430;28;20393;-76
2021/07/12 01:58:35;;;;;;;24.55;18.27;;;16.20;99.90;;;;;;5015979;28;20404;-76
2021/07/12 02:01:02;;;;;;;26.58;19.83;;;16.10;99.90;;;;;;5013351;28;20397;-77
2021/07/12 02:03:29;;;;;;;25.17;19.65;;;16.20;99.90;;;;;;5012949;28;20391;-77
2021/07/12 02:05:57;;;;;;;26.85;20.05;;;16.20;99.90;;;;;;5012841;28;20389;-77
2021/07/12 02:08:24;;;;;;;23.75;19.35;;;16.20;99.90;;;;;;5013661;28;20458;-77
2021/07/12 02:10:52;;;;;;;25.90;18.83;;;16.20;99.90;;;;;;5013417;28;20443;-76
2021/07/12 02:13:19;;;;;;;22.33;18.00;;;16.30;99.90;;;;;;5012852;28;20384;-77
2021/07/12 02:15:50;;;;;;;22.30;18.73;;;16.30;99.90;;;;;;5012513;28;20388;-77
2021/07/12 02:18:16;;;;;;;24.70;19.08;;;16.50;99.90;;;;;;5012210;28;20385;-77
2021/07/12 02:20:46;;;;;;;25.77;18.95;;;16.40;99.90;;;;;;5011894;28;20977;-78
2021/07/12 02:23:12;;;;;;;28.33;20.10;;;16.30;99.90;;;;;;5012428;28;20777;-77
2021/07/12 02:25:40;;;;;;;27.35;20.30;;;16.30;99.90;;;;;;5012436;28;20392;-76
2021/07/12 02:28:08;;;;;;;25.13;19.90;;;16.20;99.90;;;;;;4995182;28;20499;-78
2021/07/12 02:30:35;;;;;;;26.38;20.38;;;16.20;99.90;;;;;;5013060;28;20387;-76
2021/07/12 02:33:02;;;;;;;24.37;19.63;;;16.20;99.90;;;;;;5012698;28;20385;-76
2021/07/12 02:35:28;;;;;;;26.27;20.30;;;16.10;99.90;;;;;;4995211;28;20400;-78
2021/07/12 02:37:56;;;;;;;26.42;19.70;;;16.10;99.90;;;;;;5012593;28;20424;-77
2021/07/12 02:40:22;;;;;;;28.38;20.35;;;16.10;99.90;;;;;;4996180;28;20396;-75
2021/07/12 02:42:50;;;;;;;24.55;20.42;;;16.10;99.90;;;;;;5012315;28;20412;-77
2021/07/12 02:45:17;;;;;;;27.47;21.23;;;16.10;99.90;;;;;;5012104;28;20741;-77
2021/07/12 02:47:44;;;;;;;26.23;19.83;;;16.10;99.90;;;;;;4994344;28;20404;-78
2021/07/12 02:50:11;;;;;;;26.33;20.27;;;16.20;99.90;;;;;;5012340;28;20442;-78
2021/07/12 02:53:15;;;;;;;25.98;19.58;;;16.20;99.90;;;;;;5012464;28;20392;-76
2021/07/12 02:55:41;;;;;;;25.77;20.20;;;16.20;99.90;;;;;;4995464;28;20412;-76
2021/07/12 02:58:07;;;;;;;29.90;20.90;;;16.30;99.90;;;;;;5012376;28;20471;-78
2021/07/12 03:00:33;;;;;;;25.73;20.27;;;16.30;99.90;;;;;;5013980;28;20381;-78
2021/07/12 03:02:58;;;;;;;25.37;19.90;;;16.30;99.90;;;;;;5013096;28;20412;-77
2021/07/12 03:05:24;;;;;;;24.53;20.10;;;16.20;99.90;;;;;;4996486;28;20428;-78
2021/07/12 03:08:13;;;;;;;27.00;19.25;;;16.10;99.90;;;;;;5012614;28;20886;-77
2021/07/12 03:10:48;;;;;;;26.27;20.00;;;16.10;99.90;;;;;;5011846;28;20385;-76
2021/07/12 03:13:29;;;;;;;24.40;19.08;;;16.20;99.90;;;;;;5011525;28;20432;-77
2021/07/12 03:15:56;;;;;;;28.77;20.70;;;16.10;99.90;;;;;;5011775;28;20392;-78
2021/07/12 03:18:28;;;;;;;30.20;22.13;;;16.00;99.90;;;;;;5012678;28;20392;-78
2021/07/12 03:20:57;;;;;;;28.02;22.40;;;16.00;99.90;;;;;;4994205;28;20393;-78
2021/07/12 03:23:24;;;;;;;27.05;21.33;;;16.00;99.90;;;;;;5012288;28;20932;-77
2021/07/12 03:25:57;;;;;;;29.92;20.00;;;16.10;99.90;;;;;;4994326;28;20455;-78
2021/07/12 03:28:23;;;;;;;28.20;21.33;;;16.20;99.90;;;;;;4993923;28;20407;-77
2021/07/12 03:30:50;;;;;;;29.10;21.40;;;16.20;99.90;;;;;;5011402;28;20765;-77
2021/07/12 03:33:18;;;;;;;27.30;22.13;;;16.10;99.90;;;;;;5013099;28;20905;-78
2021/07/12 03:35:45;;;;;;;28.50;20.80;;;16.10;99.90;;;;;;4998332;28;20407;-77
2021/07/12 03:38:13;;;;;;;29.58;20.83;;;16.30;99.90;;;;;;5017715;28;20404;-77
2021/07/12 03:40:40;;;;;;;25.73;20.75;;;16.20;99.90;;;;;;5022046;28;20431;-77
2021/07/12 03:43:09;;;;;;;24.60;20.83;;;16.10;99.90;;;;;;5019379;28;20963;-78
2021/07/12 03:45:35;;;;;;;29.55;20.85;;;16.30;99.90;;;;;;4997342;28;20427;-77
2021/07/12 03:48:01;;;;;;;26.33;21.70;;;16.20;99.90;;;;;;5016367;28;20487;-77
2021/07/12 03:50:28;;;;;;;29.60;21.48;;;16.10;99.90;;;;;;5021485;28;20409;-77
2021/07/12 03:52:54;;;;;;;27.10;21.08;;;16.10;99.90;;;;;;5016160;28;20384;-77
2021/07/12 03:55:23;;;;;;;26.10;20.70;;;16.10;99.90;;;;;;4998447;28;20404;-77
2021/07/12 03:57:50;;;;;;;28.25;21.58;;;16.10;99.90;;;;;;5016030;28;20385;-78
2021/07/12 04:00:21;;;;;;;30.10;21.55;;;16.20;99.90;;;;;;5019717;28;20400;-78
2021/07/12 04:02:47;;;;;;;28.57;21.30;;;16.20;99.90;;;;;;5000467;28;20515;-77
2021/07/12 04:05:13;;;;;;;30.75;20.45;;;16.20;99.90;;;;;;5020847;28;20409;-78
2021/07/12 04:07:40;;;;;;;31.77;22.37;;;16.30;99.90;;;;;;5021826;28;20408;-78
2021/07/12 04:10:09;;;;;;;28.17;22.25;;;16.30;99.90;;;;;;5002251;28;20389;-78
2021/07/12 04:12:36;;;;;;;32.90;20.98;;;16.40;99.90;;;;;;5017062;28;20381;-78
2021/07/12 04:15:02;;;;;;;30.10;21.98;;;16.40;99.90;;;;;;5016847;28;20392;-78
2021/07/12 04:17:27;;;;;;;28.90;21.60;;;16.50;99.90;;;;;;5016020;28;20393;-78
2021/07/12 04:19:53;;;;;;;27.60;21.08;;;16.60;99.90;;;;;;4998476;28;20479;-78
2021/07/12 04:22:19;;;;;;;31.23;21.60;;;16.60;99.90;;;;;;5016053;28;20413;-77
2021/07/12 04:24:45;;;;;;;28.20;21.00;;;16.70;99.90;;;;;;4998957;28;20527;-77
2021/07/12 04:27:10;;;;;;;26.67;20.98;;;16.80;99.90;;;;;;5018292;28;20885;-77
2021/07/12 04:29:36;;;;;;;27.67;21.13;;;16.90;99.90;;;;;;5015451;28;20918;-77
2021/07/12 04:32:03;;;;;;;30.10;21.90;;;16.90;99.90;;;;;;5014410;28;20385;-78
2021/07/12 04:34:29;;;;;;;30.23;21.13;;;17.00;99.90;;;;;;5015528;28;20397;-77
2021/07/12 04:36:55;;;;;;;31.87;21.60;;;17.10;99.90;;;;;;5015045;28;20420;-78
2021/07/12 04:39:21;;;;;;;27.33;20.25;;;17.20;99.90;;;;;;5019420;28;20737;-78
2021/07/12 04:41:47;;;;;;;27.92;20.17;;;17.20;99.90;;;;;;4997645;28;20401;-77
2021/07/12 04:44:13;;;;;;;27.85;19.85;;;17.40;99.50;;;;;;5013568;28;20446;-77
2021/07/12 04:46:39;;;;;;;27.20;19.93;;;17.50;98.40;;;;;;5001306;28;20409;-78
2021/07/12 04:49:05;;;;;;;26.08;20.30;;;17.70;96.20;;;;;;5018816;28;20403;-78
2021/07/12 04:51:31;;;;;;;24.67;19.00;;;17.80;95.90;;;;;;5016014;28;20385;-77
2021/07/12 04:53:57;;;;;;;24.42;18.75;;;18.00;91.90;;;;;;5018914;28;20865;-77
2021/07/12 04:56:23;;;;;;;26.95;19.23;;;18.10;90.40;;;;;;5023770;28;20388;-77
2021/07/12 04:58:49;;;;;;;23.90;18.17;;;18.10;90.40;;;;;;5006668;28;20460;-78
2021/07/12 05:01:16;;;;;;;22.60;18.17;;;18.30;88.60;;;;;;5024205;28;20397;-78
2021/07/12 05:03:42;;;;;;;24.52;18.50;;;18.30;88.80;;;;;;5025141;28;20414;-77
2021/07/12 05:06:08;;;;;;;25.65;19.40;;;18.30;88.30;;;;;;5001938;28;20456;-76
2021/07/12 05:08:34;;;;;;;25.15;18.75;;;18.40;86.70;;;;;;4999004;28;20470;-77
2021/07/12 05:11:00;;;;;;;27.00;18.00;;;18.40;86.70;;;;;;5016234;28;20385;-77
2021/07/12 05:13:29;;;;;;;23.92;18.77;;;18.50;86.20;;;;;;5018153;28;20912;-77
2021/07/12 05:15:54;;;;;;;23.73;18.40;;;18.60;84.10;;;;;;5022067;28;20412;-78
2021/07/12 05:18:20;;;;;;;26.45;18.08;;;18.60;83.90;;;;;;5018519;28;20448;-77
2021/07/12 05:20:46;;;;;;;20.67;16.87;;;18.70;83.60;;;;;;5016704;28;20411;-77
2021/07/12 05:23:11;;;;;;;23.30;17.87;;;18.80;82.30;;;;;;4999182;28;20409;-78
2021/07/12 05:25:37;;;;;;;25.73;17.92;;;18.90;82.20;;;;;;5019645;28;20393;-77
2021/07/12 05:28:05;;;;;;;23.45;17.17;;;19.00;80.80;;;;;;5018737;28;20381;-77
2021/07/12 05:30:30;;;;;;;22.38;16.27;;;19.10;79.10;;;;;;5017414;28;20376;-78
2021/07/12 05:32:56;;;;;;;19.80;15.80;;;19.20;78.60;;;;;;5015199;28;20948;-77
2021/07/12 05:35:22;;;;;;;25.35;16.20;;;19.30;77.20;;;;;;5015037;28;20474;-76
2021/07/12 05:37:47;;;;;;;17.88;15.55;;;19.40;76.10;;;;;;5016653;28;20391;-78
2021/07/12 05:40:13;;;;;;;22.90;15.97;;;19.50;74.00;;;;;;4999165;28;20420;-77
2021/07/12 05:42:39;;;;;;;20.57;15.60;;;19.60;72.80;;;;;;5015471;28;20408;-77
2021/07/12 05:45:05;;;;;;;21.60;16.00;;;19.70;71.40;;;;;;4996217;28;20878;-77
2021/07/12 05:47:31;;;;;;;21.38;15.32;;;19.80;69.50;;;;;;5015332;28;20447;-76
2021/07/12 05:49:56;;;;;;;17.23;13.63;;;19.90;68.60;;;;;;5018121;28;20793;-77
2021/07/12 05:52:22;;;;;;;20.10;13.95;;;20.10;66.70;;;;;;5019950;28;20405;-77
2021/07/12 05:54:47;;;;;;;22.77;14.33;;;20.20;65.00;;;;;;5021435;28;20731;-78
2021/07/12 05:57:24;;;;;;;17.65;14.50;;;20.30;64.40;;;;;;5020940;28;20657;-77
2021/07/12 05:59:50;;;;;;;17.88;14.30;;;20.40;62.50;;;;;;5022225;28;20439;-78
2021/07/12 06:02:15;;;;;;;15.85;13.50;;;20.50;60.90;;;;;;5018371;28;20412;-77
2021/07/12 06:04:41;;;;;;;15.97;13.30;;;20.60;60.10;;;;;;5019380;28;20399;-76
2021/07/12 06:07:07;;;;;;;16.38;13.07;;;20.60;58.30;;;;;;5018693;28;20396;-78
2021/07/12 06:09:32;;;;;;;17.35;12.80;;;20.70;58.10;;;;;;5016906;28;20385;-78
2021/07/12 06:11:58;;;;;;;21.90;12.60;;;20.70;57.30;;;;;;5017449;28;20736;-77
2021/07/12 06:14:23;;;;;;;17.00;12.70;;;20.70;54.90;;;;;;5018604;28;20805;-78
2021/07/12 06:16:49;;;;;;;17.23;12.57;;;20.70;55.40;;;;;;5018960;28;20463;-77
2021/07/12 06:19:14;;;;;;;18.70;12.77;;;20.70;55.20;;;;;;5020488;28;20389;-77
2021/07/12 06:21:40;;;;;;;20.35;14.02;;;20.80;54.30;;;;;;5017782;28;20743;-77
2021/07/12 06:24:06;;;;;;;18.57;13.40;;;20.80;55.10;;;;;;4999872;28;20488;-77
2021/07/12 06:26:31;;;;;;;16.87;12.83;;;20.90;56.00;;;;;;5016483;28;20476;-77
2021/07/12 06:28:57;;;;;;;14.57;12.02;;;20.80;56.00;;;;;;5018530;28;20393;-78
2021/07/12 06:31:22;;;;;;;18.20;12.77;;;21.00;54.60;;;;;;5024074;28;20442;-77
2021/07/12 06:33:48;;;;;;;16.30;12.53;;;20.90;55.70;;;;;;5022461;28;20396;-77
2021/07/12 06:36:14;;;;;;;17.70;12.48;;;20.90;55.80;;;;;;5003903;28;20476;-77
2021/07/12 06:38:40;;;;;;;16.97;12.73;;;20.80;56.40;;;;;;5022879;28;20384;-77
2021/07/12 06:41:05;;;;;;;19.02;13.30;;;20.90;55.70;;;;;;5022260;28;20388;-77
2021/07/12 06:43:31;;;;;;;15.93;12.40;;;20.80;55.30;;;;;;5023169;28;20473;-78
2021/07/12 06:45:59;;;;;;;16.35;12.35;;;20.70;56.60;;;;;;5022907;28;20392;-78
2021/07/12 06:48:25;;;;;;;15.20;13.57;;;20.60;57.80;;;;;;5017724;28;20400;-78
2021/07/12 06:50:51;;;;;;;17.67;13.73;;;20.80;57.10;;;;;;4999054;28;20397;-77
2021/07/12 06:53:16;;;;;;;16.27;13.35;;;20.80;58.00;;;;;;5018275;28;20751;-78
2021/07/12 06:55:42;;;;;;;18.63;13.10;;;20.80;57.50;;;;;;5019910;28;20468;-77
2021/07/12 06:58:11;;;;;;;17.10;13.02;;;20.70;57.20;;;;;;4999557;28;20471;-78
2021/07/12 07:00:37;;;;;;;16.35;12.52;;;20.80;56.50;;;;;;5016986;28;20399;-78
2021/07/12 07:03:03;;;;;;;15.35;12.30;;;20.70;56.20;;;;;;5017421;28;20418;-77
2021/07/12 07:05:28;;;;;;;15.20;11.73;;;20.80;56.40;;;;;;5021574;28;20419;-77
2021/07/12 07:07:55;;;;;;;14.75;12.73;;;20.90;56.80;;;;;;5024453;28;20460;-76
2021/07/12 07:10:20;;;;;;;18.90;12.70;;;21.00;56.30;;;;;;5023009;28;20424;-77
2021/07/12 07:12:46;;;;;;;14.82;12.38;;;21.00;56.60;;;;;;5003671;28;20428;-78
2021/07/12 07:15:12;;;;;;;16.25;12.98;;;20.90;56.70;;;;;;5020111;28;20389;-77
2021/07/12 07:17:38;;;;;;;14.50;11.90;;;21.00;56.90;;;;;;5021237;28;20450;-77
2021/07/12 07:20:05;;;;;;;17.27;12.30;;;21.10;56.30;;;;;;5021632;28;20757;-79
2021/07/12 07:22:31;;;;;;;14.98;11.70;;;21.30;55.30;;;;;;5021674;28;20427;-78
2021/07/12 07:24:57;;;;;;;15.13;11.48;;;21.30;56.80;;;;;;5021400;28;20438;-79
2021/07/12 07:27:23;;;;;;;17.05;12.38;;;21.40;53.80;;;;;;5022249;28;20416;-78
2021/07/12 07:29:49;;;;;;;12.95;11.02;;;21.50;53.60;;;;;;5004094;28;20397;-79
2021/07/12 07:32:15;;;;;;;13.30;10.73;;;21.70;53.40;;;;;;5023329;28;20400;-76
2021/07/12 07:34:41;;;;;;;14.98;10.80;;;21.80;52.20;;;;;;5022962;28;20391;-80
2021/07/12 07:37:08;;;;;;;11.10;10.00;;;22.00;50.90;;;;;;5020881;28;20456;-77
2021/07/12 07:39:34;;;;;;;14.05;11.25;;;22.10;49.70;;;;;;5022564;28;20396;-78
2021/07/12 07:42:00;;;;;;;15.80;12.07;;;22.20;49.00;;;;;;5022351;28;20408;-75
2021/07/12 07:44:26;;;;;;;16.60;11.30;;;22.30;47.80;;;;;;5023041;28;20385;-79
2021/07/12 07:46:51;;;;;;;23.50;11.90;;;22.40;47.40;;;;;;5024289;28;20393;-76
2021/07/12 07:49:17;;;;;;;17.90;11.13;;;22.60;47.20;;;;;;5023575;28;20476;-77
2021/07/12 07:51:44;;;;;;;10.55;9.45;;;22.70;47.20;;;;;;5021911;28;20403;-76
2021/07/12 07:54:10;;;;;;;13.10;9.48;;;23.00;45.80;;;;;;5022710;28;20951;-77
2021/07/12 07:56:37;;;;;;;16.45;9.90;;;23.10;42.20;;;;;;5020379;28;20446;-78
2021/07/12 07:59:04;;;;;;;13.02;9.82;;;23.10;42.90;;;;;;5019888;28;20396;-76
2021/07/12 08:01:30;;;;;;;11.50;10.10;;;23.10;43.20;;;;;;5019133;28;20393;-78
2021/07/12 08:03:55;;;;;;;14.37;9.33;;;23.10;41.60;;;;;;5019366;28;20749;-77
2021/07/12 08:06:21;;;;;;;12.77;9.65;;;23.30;40.70;;;;;;5021788;28;20432;-75
2021/07/12 08:08:46;;;;;;;12.80;9.65;;;23.30;39.90;;;;;;5025366;28;20408;-76
2021/07/12 08:11:12;;;;;;;10.80;9.00;;;23.20;40.00;;;;;;5025871;28;20392;-77
2021/07/12 08:13:38;;;;;;;10.70;9.50;;;23.30;39.20;;;;;;5026112;28;20429;-77
2021/07/12 08:16:04;;;;;;;12.65;9.52;;;23.30;38.60;;;;;;5007883;28;20436;-77
2021/07/12 08:18:30;;;;;;;10.57;9.48;;;23.10;38.90;;;;;;5006979;28;20498;-76
2021/07/12 08:20:56;;;;;;;15.52;9.30;;;23.10;39.00;;;;;;5024406;28;20396;-76
2021/07/12 08:23:23;;;;;;;9.53;7.87;;;23.10;39.00;;;;;;5023821;28;20465;-75
2021/07/12 08:25:52;;;;;;;10.45;8.52;;;23.30;37.30;;;;;;5024935;28;20464;-78
2021/07/12 08:28:19;;;;;;;11.88;8.25;;;23.50;37.20;;;;;;5026427;28;20385;-76
2021/07/12 08:30:45;;;;;;;9.90;8.50;;;23.50;37.90;;;;;;5021644;28;20400;-76
2021/07/12 08:33:11;;;;;;;13.82;8.82;;;23.50;37.10;;;;;;5021316;28;20435;-78
2021/07/12 08:35:37;;;;;;;11.40;9.30;;;23.50;37.70;;;;;;5003940;28;20874;-77
2021/07/12 08:38:04;;;;;;;8.13;7.40;;;23.50;38.00;;;;;;5023240;28;20457;-76
2021/07/12 08:40:30;;;;;;;7.90;7.20;;;23.60;35.90;;;;;;5025148;28;20816;-76
2021/07/12 08:42:58;;;;;;;11.48;6.88;;;23.60;35.90;;;;;;5026413;28;20405;-76
2021/07/12 08:45:24;;;;;;;7.20;6.50;;;23.80;33.50;;;;;;5023976;28;20396;-76
2021/07/12 08:47:51;;;;;;;11.20;6.20;;;23.80;33.90;;;;;;5024234;28;20631;-77
2021/07/12 08:50:17;;;;;;;7.93;6.57;;;23.90;32.60;;;;;;5008100;28;20395;-77
2021/07/12 08:52:44;;;;;;;6.70;6.10;;;24.20;32.90;;;;;;5021445;28;20393;-77
2021/07/12 08:55:10;;;;;;;8.32;6.00;;;24.20;31.70;;;;;;5020609;28;20385;-77
2021/07/12 08:57:35;;;;;;;5.50;5.00;;;24.20;31.90;;;;;;5019723;28;20393;-77
2021/07/12 09:00:03;;;;;;;8.20;5.30;;;24.30;28.50;;;;;;5018801;28;20393;-77
2021/07/12 09:02:30;;;;;;;5.65;5.00;;;24.30;28.30;;;;;;5018331;28;20413;-78
2021/07/12 09:04:55;;;;;;;6.00;5.40;;;24.40;28.00;;;;;;5017066;28;20731;-78
2021/07/12 09:07:28;;;;;;;9.87;5.17;;;24.40;29.10;;;;;;5017579;28;20400;-77
2021/07/12 09:10:09;;;;;;;6.10;5.50;;;24.50;28.20;;;;;;5016761;28;20514;-78
2021/07/12 09:12:52;;;;;;;6.10;5.50;;;24.60;28.90;;;;;;5019343;28;20805;-78
2021/07/12 09:15:20;;;;;;;6.32;5.78;;;24.60;28.70;;;;;;5018758;28;20746;-79
2021/07/12 09:17:53;;;;;;;5.40;4.90;;;24.80;28.70;;;;;;5018322;28;20416;-80
2021/07/12 09:20:31;;;;;;;5.63;5.05;;;24.90;28.10;;;;;;5018307;28;20408;-75
2021/07/12 09:22:58;;;;;;;4.43;4.03;;;25.10;25.70;;;;;;5017414;28;20881;-77
2021/07/12 09:25:31;;;;;;;4.80;4.40;;;25.60;23.90;;;;;;5022408;28;20400;-78
2021/07/12 09:27:56;;;;;;;6.75;4.40;;;25.70;22.60;;;;;;5001064;28;20464;-79
2021/07/12 09:30:22;;;;;;;4.60;4.20;;;25.60;21.60;;;;;;5016421;28;20423;-77
2021/07/12 09:32:52;;;;;;;4.60;4.20;;;25.70;21.50;;;;;;4999089;28;20392;-78
2021/07/12 09:35:20;;;;;;;4.63;4.22;;;25.50;21.50;;;;;;5015996;28;20388;-76
2021/07/12 09:37:55;;;;;;;5.63;4.80;;;25.30;21.70;;;;;;5017659;28;20388;-78
2021/07/12 09:40:21;;;;;;;4.20;3.90;;;25.10;22.70;;;;;;5003941;28;20388;-77
2021/07/12 09:42:49;;;;;;;4.20;3.90;;;25.40;21.50;;;;;;5022719;28;20413;-77
2021/07/12 09:45:17;;;;;;;4.88;3.90;;;25.70;20.00;;;;;;5019734;28;20424;-76
2021/07/12 09:47:45;;;;;;;4.20;3.90;;;26.10;19.80;;;;;;5022135;28;20770;-77
2021/07/12 09:50:14;;;;;;;4.00;3.55;;;26.30;19.50;;;;;;5023733;28;20400;-76
2021/07/12 09:53:00;;;;;;;8.20;3.70;;;26.40;18.00;;;;;;5017150;28;20395;-77
2021/07/12 09:55:27;;;;;;;6.40;3.53;;;26.30;18.00;;;;;;5016939;28;20385;-76
2021/07/12 09:58:11;;;;;;;4.38;3.40;;;26.40;18.20;;;;;;5018788;28;20396;-80
2021/07/12 10:00:57;;;;;;;3.67;3.30;;;26.30;18.20;;;;;;5018161;28;20385;-79
2021/07/12 10:03:26;;;;;;;5.90;3.63;;;26.10;18.40;;;;;;5002015;28;20484;-78
2021/07/12 10:05:53;;;;;;;4.00;3.70;;;26.10;19.10;;;;;;5016839;28;20388;-78
2021/07/12 10:08:19;;;;;;;3.25;3.05;;;26.30;18.00;;;;;;5017102;28;20397;-78
2021/07/12 10:10:45;;;;;;;6.32;3.10;;;26.50;17.50;;;;;;5016486;28;20419;-76
2021/07/12 10:13:11;;;;;;;5.75;3.50;;;26.80;16.00;;;;;;5016801;28;20442;-77
2021/07/12 10:15:36;;;;;;;4.88;3.10;;;27.20;15.70;;;;;;5016387;28;20471;-78
2021/07/12 10:18:06;;;;;;;3.80;3.50;;;27.40;15.50;;;;;;4999840;28;20396;-76
2021/07/12 10:20:34;;;;;;;3.60;3.30;;;27.60;14.30;;;;;;4999946;28;20685;-79
2021/07/12 10:23:01;;;;;;;3.22;3.03;;;27.80;13.90;;;;;;5017192;28;20446;-78
2021/07/12 10:25:29;;;;;;;3.45;3.22;;;27.90;13.30;;;;;;4998100;28;20381;-77
2021/07/12 10:28:00;;;;;;;4.85;3.20;;;28.30;12.80;;;;;;5015501;28;20385;-76
2021/07/12 10:30:37;;;;;;;3.20;3.00;;;28.70;12.30;;;;;;5001001;28;20843;-76
2021/07/12 10:33:06;;;;;;;4.00;2.88;;;28.80;11.80;;;;;;5018577;28;20946;-75
2021/07/12 10:35:43;;;;;;;6.90;3.30;;;29.00;12.40;;;;;;5021626;28;20435;-77
2021/07/12 10:38:12;;;;;;;3.60;3.30;;;28.90;11.10;;;;;;5018532;28;20388;-75
2021/07/12 10:40:49;;;;;;;3.47;3.17;;;28.70;11.60;;;;;;5028729;28;20411;-75
2021/07/12 10:43:33;;;;;;;3.28;3.00;;;28.60;12.30;;;;;;5004478;28;20443;-77
2021/07/12 10:45:59;;;;;;;3.45;3.15;;;28.70;12.70;;;;;;5020354;28;20393;-76
2021/07/12 10:48:40;;;;;;;3.50;3.30;;;29.10;12.40;;;;;;5020865;28;20795;-75
2021/07/12 10:51:23;;;;;;;3.65;3.35;;;29.30;11.50;;;;;;5021975;28;20431;-76
2021/07/12 10:54:11;;;;;;;3.63;3.33;;;29.20;12.00;;;;;;5005604;28;20636;-76
2021/07/12 10:56:56;;;;;;;3.33;3.03;;;29.30;12.50;;;;;;5020256;28;20384;-77
2021/07/12 10:59:31;;;;;;;3.53;3.25;;;29.30;12.10;;;;;;5020405;28;20399;-77
2021/07/12 11:02:02;;;;;;;3.00;2.80;;;29.20;11.90;;;;;;5021196;28;20496;-76
2021/07/12 11:04:57;;;;;;;4.07;3.10;;;29.60;10.40;;;;;;5018233;28;20424;-77
2021/07/12 11:07:53;;;;;;;2.90;2.80;;;29.40;11.30;;;;;;5009683;28;20408;-77
2021/07/12 11:10:27;;;;;;;3.50;2.83;;;29.40;11.20;;;;;;4990688;28;20443;-75
2021/07/12 11:12:54;;;;;;;4.30;3.30;;;29.20;11.30;;;;;;5016473;28;20397;-77
2021/07/12 11:15:23;;;;;;;4.90;3.20;;;29.20;11.50;;;;;;5015465;28;20800;-78
2021/07/12 11:17:52;;;;;;;3.20;3.00;;;29.50;10.40;;;;;;5019168;28;20454;-77
2021/07/12 11:20:40;;;;;;;3.50;3.20;;;29.70;10.50;;;;;;5015244;28;20397;-77
2021/07/12 11:23:06;;;;;;;3.47;3.28;;;29.90;9.50;;;;;;5016401;28;20969;-77
2021/07/12 11:25:40;;;;;;;2.80;2.60;;;29.80;9.50;;;;;;5016909;28;20427;-78
2021/07/12 11:28:09;;;;;;;3.90;3.10;;;29.70;9.50;;;;;;5020144;28;20385;-76
2021/07/12 11:30:35;;;;;;;4.38;3.03;;;29.80;8.30;;;;;;5019822;28;20934;-76
2021/07/12 11:33:01;;;;;;;4.40;2.80;;;29.70;8.80;;;;;;5021151;28;20423;-77
2021/07/12 11:35:27;;;;;;;3.35;3.05;;;29.50;8.70;;;;;;5001834;28;20393;-77
2021/07/12 11:38:01;;;;;;;3.57;3.27;;;29.70;9.80;;;;;;5006069;28;20451;-76
2021/07/12 11:40:27;;;;;;;3.30;3.20;;;29.90;8.80;;;;;;5010386;28;20397;-76
2021/07/12 11:42:53;;;;;;;4.03;3.20;;;29.90;9.80;;;;;;5011091;28;20459;-75
2021/07/12 11:45:20;;;;;;;3.50;3.20;;;30.00;8.60;;;;;;5011777;28;20405;-76
2021/07/12 11:47:55;;;;;;;3.53;2.72;;;30.10;9.60;;;;;;5019854;28;20392;-78
2021/07/12 11:50:21;;;;;;;3.30;3.00;;;30.10;7.70;;;;;;5000409;28;20448;-78
2021/07/12 11:52:49;;;;;;;3.50;3.20;;;30.10;8.30;;;;;;5019875;28;20432;-76
2021/07/12 11:55:26;;;;;;;3.50;3.20;;;30.40;8.20;;;;;;5009376;28;20400;-75
2021/07/12 11:57:58;;;;;;;5.20;3.38;;;30.20;8.40;;;;;;5024516;28;20476;-78
2021/07/12 12:00:25;;;;;;;3.75;3.38;;;30.10;9.30;;;;;;5002957;28;20933;-77
2021/07/12 12:03:11;;;;;;;3.42;2.97;;;30.10;9.40;;;;;;5019960;28;20412;-76
2021/07/12 12:05:39;;;;;;;3.40;3.00;;;29.90;9.20;;;;;;5002691;28;20395;-77
2021/07/12 12:08:06;;;;;;;3.80;3.50;;;29.80;9.10;;;;;;5021385;28;20435;-76
2021/07/12 12:10:40;;;;;;;5.53;3.47;;;29.70;9.40;;;;;;5025219;28;20384;-76
2021/07/12 12:13:15;;;;;;;3.30;3.00;;;29.80;9.50;;;;;;5007804;28;20425;-77
2021/07/12 12:15:46;;;;;;;3.35;3.15;;;29.60;9.00;;;;;;5008143;28;20404;-76
2021/07/12 12:18:14;;;;;;;7.20;3.13;;;29.70;9.60;;;;;;5002657;28;20433;-78
2021/07/12 12:20:52;;;;;;;4.70;3.50;;;29.70;9.40;;;;;;5002939;28;20435;-77
2021/07/12 12:23:19;;;;;;;3.00;2.80;;;29.60;9.10;;;;;;5020750;28;20431;-78
2021/07/12 12:25:54;;;;;;;3.17;2.88;;;29.40;9.10;;;;;;5022365;28;20420;-76
2021/07/12 12:28:21;;;;;;;3.50;3.30;;;29.40;9.80;;;;;;5023423;28;20405;-76
2021/07/12 12:30:47;;;;;;;2.95;2.30;;;29.70;10.10;;;;;;5024965;28;20404;-77
2021/07/12 12:33:13;;;;;;;2.80;2.70;;;29.60;9.50;;;;;;5006893;28;20396;-78
2021/07/12 12:35:39;;;;;;;3.10;2.90;;;29.60;9.60;;;;;;5003247;28;20404;-78
2021/07/12 12:38:15;;;;;;;3.00;2.80;;;29.50;9.80;;;;;;5002798;28;20408;-76
2021/07/12 12:40:43;;;;;;;3.00;2.80;;;29.50;10.00;;;;;;5002654;28;20851;-78
2021/07/12 12:43:14;;;;;;;2.92;2.60;;;29.70;8.90;;;;;;5020496;28;20422;-76
2021/07/12 12:45:51;;;;;;;3.30;2.80;;;29.60;9.40;;;;;;5024577;28;20381;-75